Time;durP1;ratioP1;P1;durP2;ratioP2;P2;SDS_P1;SDS_P2;PMS_P1;PMS_P2;Temp;Humidity;BMP_temperature;BMP_pressure;BME280_temperature;BME280_humidity;BME280_pressure;Samples;Min_cycle;Max_cycle;Signal;HPM_P1;HPM_P2
2024/03/02 00:00:41;;;;;;;0.00;0.00;;;;;;;;;;4876367;29;20029;-69
2024/03/02 00:03:06;;;;;;;0.05;0.05;;;;;;;;;;4871000;29;20662;-69
2024/03/02 00:05:32;;;;;;;0.10;0.10;;;;;;;;;;4872052;29;20021;-69
2024/03/02 00:07:57;;;;;;;0.00;0.00;;;;;;;;;;4871335;29;20029;-69
2024/03/02 00:10:28;;;;;;;0.00;0.00;;;;;;;;;;4878585;29;20270;-70
2024/03/02 00:12:55;;;;;;;0.20;0.20;;;;;;;;;;4878311;29;20116;-69
2024/03/02 00:15:36;;;;;;;0.00;0.00;;;;;;;;;;4881202;29;20029;-69
2024/03/02 00:18:01;;;;;;;0.00;0.00;;;;;;;;;;4881346;29;20040;-69
2024/03/02 00:20:27;;;;;;;0.10;0.10;;;;;;;;;;4879293;29;20030;-69
2024/03/02 00:22:58;;;;;;;0.25;0.25;;;;;;;;;;4881163;29;20280;-69
2024/03/02 00:25:23;;;;;;;0.22;0.22;;;;;;;;;;4877945;29;20029;-69
2024/03/02 00:27:49;;;;;;;0.10;0.10;;;;;;;;;;4872141;29;20025;-69
2024/03/02 00:30:37;;;;;;;0.00;0.00;;;;;;;;;;4876015;29;20024;-69
2024/03/02 00:33:06;;;;;;;0.10;0.10;;;;;;;;;;4878948;29;20040;-69
2024/03/02 00:35:32;;;;;;;0.00;0.00;;;;;;;;;;4877484;29;20098;-69
2024/03/02 00:37:57;;;;;;;0.00;0.00;;;;;;;;;;4880614;29;20376;-69
2024/03/02 00:40:27;;;;;;;0.00;0.00;;;;;;;;;;4875894;29;20032;-69
2024/03/02 00:42:52;;;;;;;0.35;0.35;;;;;;;;;;4876851;29;20108;-69
2024/03/02 00:45:17;;;;;;;0.00;0.00;;;;;;;;;;4874480;29;20096;-69
2024/03/02 00:47:43;;;;;;;0.10;0.10;;;;;;;;;;4874225;29;20620;-69
2024/03/02 00:50:08;;;;;;;0.10;0.10;;;;;;;;;;4881252;29;20715;-69
2024/03/02 00:52:34;;;;;;;0.00;0.00;;;;;;;;;;4875432;29;20029;-69
2024/03/02 00:54:59;;;;;;;0.05;0.05;;;;;;;;;;4877422;29;20054;-69
2024/03/02 00:57:25;;;;;;;0.73;0.38;;;;;;;;;;4873632;29;20525;-70
2024/03/02 00:59:51;;;;;;;0.00;0.00;;;;;;;;;;4881648;29;20083;-69
2024/03/02 01:02:16;;;;;;;0.00;0.00;;;;;;;;;;4881095;29;20053;-69
2024/03/02 01:04:41;;;;;;;0.00;0.00;;;;;;;;;;4870046;29;20454;-69
2024/03/02 01:07:06;;;;;;;0.93;0.57;;;;;;;;;;4876018;29;20031;-69
2024/03/02 01:09:31;;;;;;;0.00;0.00;;;;;;;;;;4877213;29;20087;-69
2024/03/02 01:11:57;;;;;;;0.07;0.07;;;;;;;;;;4879758;29;20021;-69
2024/03/02 01:14:22;;;;;;;0.15;0.15;;;;;;;;;;4875358;29;20458;-69
2024/03/02 01:16:49;;;;;;;0.00;0.00;;;;;;;;;;4873513;29;20053;-70
2024/03/02 01:19:14;;;;;;;0.10;0.10;;;;;;;;;;4877038;29;20739;-69
2024/03/02 01:21:40;;;;;;;0.10;0.10;;;;;;;;;;4876835;29;20021;-69
2024/03/02 01:24:05;;;;;;;0.30;0.30;;;;;;;;;;4873429;29;20025;-69
2024/03/02 01:26:30;;;;;;;1.60;0.70;;;;;;;;;;4876008;29;20028;-69
2024/03/02 01:28:55;;;;;;;0.10;0.10;;;;;;;;;;4873582;29;20269;-69
2024/03/02 01:31:21;;;;;;;0.10;0.10;;;;;;;;;;4874775;29;20097;-69
2024/03/02 01:33:46;;;;;;;0.13;0.13;;;;;;;;;;4880664;29;20753;-69
2024/03/02 01:36:11;;;;;;;0.08;0.08;;;;;;;;;;4875527;29;20810;-69
2024/03/02 01:38:36;;;;;;;0.05;0.05;;;;;;;;;;4878985;29;20029;-69
2024/03/02 01:41:02;;;;;;;0.30;0.30;;;;;;;;;;4876928;29;20516;-69
2024/03/02 01:43:27;;;;;;;0.00;0.00;;;;;;;;;;4875519;29;20070;-69
2024/03/02 01:45:53;;;;;;;0.20;0.20;;;;;;;;;;4874865;29;20113;-68
2024/03/02 01:48:19;;;;;;;0.03;0.03;;;;;;;;;;4877499;29;20386;-69
2024/03/02 01:50:44;;;;;;;0.00;0.00;;;;;;;;;;4868537;29;20025;-69
2024/03/02 01:53:10;;;;;;;0.20;0.20;;;;;;;;;;4873579;29;20029;-69
2024/03/02 01:55:35;;;;;;;0.00;0.00;;;;;;;;;;4865917;29;20249;-69
2024/03/02 01:58:01;;;;;;;0.10;0.10;;;;;;;;;;4877753;29;20032;-69
2024/03/02 02:00:26;;;;;;;0.52;0.52;;;;;;;;;;4878982;29;20054;-69
2024/03/02 02:02:52;;;;;;;0.10;0.10;;;;;;;;;;4879269;29;20025;-68
2024/03/02 02:05:17;;;;;;;0.00;0.00;;;;;;;;;;4878320;29;20536;-69
2024/03/02 02:07:42;;;;;;;0.10;0.10;;;;;;;;;;4877421;29;20099;-69
2024/03/02 02:10:08;;;;;;;0.10;0.10;;;;;;;;;;4879142;29;20351;-69
2024/03/02 02:12:34;;;;;;;0.20;0.20;;;;;;;;;;4878795;29;20410;-69
2024/03/02 02:14:59;;;;;;;0.00;0.00;;;;;;;;;;4878930;29;20371;-70
2024/03/02 02:17:25;;;;;;;0.00;0.00;;;;;;;;;;4876440;29;20040;-70
2024/03/02 02:19:50;;;;;;;0.00;0.00;;;;;;;;;;4878619;29;20260;-69
2024/03/02 02:22:15;;;;;;;0.00;0.00;;;;;;;;;;4877836;29;20283;-65
2024/03/02 02:24:41;;;;;;;0.10;0.10;;;;;;;;;;4877243;29;20286;-66
2024/03/02 02:27:06;;;;;;;0.03;0.03;;;;;;;;;;4877715;29;20017;-65
2024/03/02 02:29:31;;;;;;;0.88;0.17;;;;;;;;;;4878740;29;20029;-65
2024/03/02 02:31:57;;;;;;;0.00;0.00;;;;;;;;;;4877387;29;20441;-65
2024/03/02 02:34:22;;;;;;;0.10;0.10;;;;;;;;;;4878389;29;20021;-65
2024/03/02 02:36:47;;;;;;;0.00;0.00;;;;;;;;;;4874853;29;20025;-65
2024/03/02 02:39:15;;;;;;;0.15;0.15;;;;;;;;;;4874868;29;20025;-65
2024/03/02 02:41:40;;;;;;;0.10;0.10;;;;;;;;;;4873718;29;20025;-65
2024/03/02 02:44:05;;;;;;;0.10;0.10;;;;;;;;;;4871953;29;20017;-65
2024/03/02 02:46:30;;;;;;;0.08;0.08;;;;;;;;;;4877772;29;20260;-65
2024/03/02 02:48:56;;;;;;;0.17;0.13;;;;;;;;;;4878666;29;20049;-65
2024/03/02 02:51:21;;;;;;;0.30;0.30;;;;;;;;;;4875914;29;20029;-65
2024/03/02 02:53:46;;;;;;;0.20;0.20;;;;;;;;;;4879130;29;20063;-65
2024/03/02 02:56:12;;;;;;;0.20;0.20;;;;;;;;;;4875776;29;20348;-65
2024/03/02 02:58:37;;;;;;;0.00;0.00;;;;;;;;;;4877208;29;20026;-65
2024/03/02 03:01:02;;;;;;;0.10;0.10;;;;;;;;;;4877938;29;20028;-65
2024/03/02 03:03:27;;;;;;;0.10;0.10;;;;;;;;;;4871968;29;20410;-65
2024/03/02 03:05:52;;;;;;;0.40;0.40;;;;;;;;;;4874917;29;20029;-65
2024/03/02 03:08:18;;;;;;;0.10;0.10;;;;;;;;;;4878203;29;20021;-65
2024/03/02 03:10:43;;;;;;;0.00;0.00;;;;;;;;;;4877387;29;20369;-65
2024/03/02 03:13:08;;;;;;;0.05;0.05;;;;;;;;;;4877767;29;20029;-65
2024/03/02 03:15:37;;;;;;;0.08;0.08;;;;;;;;;;4874623;29;20033;-65
2024/03/02 03:18:05;;;;;;;0.57;0.57;;;;;;;;;;4876754;29;20036;-65
2024/03/02 03:20:31;;;;;;;0.00;0.00;;;;;;;;;;4878428;29;20032;-65
2024/03/02 03:22:56;;;;;;;0.00;0.00;;;;;;;;;;4877656;29;20033;-65
2024/03/02 03:25:22;;;;;;;0.10;0.10;;;;;;;;;;4870952;29;20040;-65
2024/03/02 03:27:47;;;;;;;0.10;0.10;;;;;;;;;;4871789;29;20045;-65
2024/03/02 03:30:12;;;;;;;0.00;0.00;;;;;;;;;;4879594;29;20036;-65
2024/03/02 03:32:37;;;;;;;0.25;0.25;;;;;;;;;;4879392;29;20263;-69
2024/03/02 03:35:03;;;;;;;0.10;0.10;;;;;;;;;;4878936;29;20116;-68
2024/03/02 03:37:32;;;;;;;0.20;0.20;;;;;;;;;;4876487;29;20415;-69
2024/03/02 03:39:57;;;;;;;0.00;0.00;;;;;;;;;;4872530;29;20025;-69
2024/03/02 03:42:22;;;;;;;0.10;0.10;;;;;;;;;;4878783;29;20402;-69
2024/03/02 03:44:48;;;;;;;0.10;0.10;;;;;;;;;;4877766;29;20017;-69
2024/03/02 03:47:13;;;;;;;0.00;0.00;;;;;;;;;;4870514;29;20033;-69
2024/03/02 03:49:38;;;;;;;3.53;0.67;;;;;;;;;;4864804;29;20288;-68
2024/03/02 03:52:04;;;;;;;0.33;0.20;;;;;;;;;;4870536;29;20431;-69
2024/03/02 03:54:29;;;;;;;0.10;0.10;;;;;;;;;;4875625;29;20052;-69
2024/03/02 03:56:54;;;;;;;0.03;0.03;;;;;;;;;;4877712;29;20025;-69
2024/03/02 03:59:19;;;;;;;0.10;0.10;;;;;;;;;;4878161;29;20377;-69
2024/03/02 04:01:44;;;;;;;0.00;0.00;;;;;;;;;;4878047;29;20256;-69
2024/03/02 04:04:10;;;;;;;0.10;0.10;;;;;;;;;;4870276;29;20405;-69
2024/03/02 04:06:35;;;;;;;0.00;0.00;;;;;;;;;;4878707;29;20022;-69
2024/03/02 04:09:00;;;;;;;0.00;0.00;;;;;;;;;;4871028;29;20436;-69
2024/03/02 04:11:26;;;;;;;0.00;0.00;;;;;;;;;;4870729;29;20632;-69
2024/03/02 04:13:51;;;;;;;0.30;0.30;;;;;;;;;;4873115;29;20073;-69
2024/03/02 04:16:16;;;;;;;0.10;0.10;;;;;;;;;;4878397;29;20116;-69
2024/03/02 04:18:41;;;;;;;0.20;0.20;;;;;;;;;;4869167;29;20505;-69
2024/03/02 04:21:06;;;;;;;0.20;0.20;;;;;;;;;;4864893;29;20032;-69
2024/03/02 04:23:32;;;;;;;0.10;0.10;;;;;;;;;;4866035;29;20109;-69
2024/03/02 04:25:57;;;;;;;0.10;0.10;;;;;;;;;;4878410;29;20444;-69
2024/03/02 04:28:22;;;;;;;0.63;0.50;;;;;;;;;;4875523;29;20464;-69
2024/03/02 04:30:47;;;;;;;0.87;0.67;;;;;;;;;;4866436;29;20076;-69
2024/03/02 04:33:13;;;;;;;0.10;0.10;;;;;;;;;;4875170;29;20029;-68
2024/03/02 04:35:38;;;;;;;0.10;0.10;;;;;;;;;;4871575;29;20025;-69
2024/03/02 04:38:03;;;;;;;0.10;0.10;;;;;;;;;;4872422;29;20788;-69
2024/03/02 04:40:28;;;;;;;0.08;0.08;;;;;;;;;;4876347;29;20748;-69
2024/03/02 04:42:54;;;;;;;0.10;0.10;;;;;;;;;;4870114;29;20044;-65
2024/03/02 04:45:19;;;;;;;0.00;0.00;;;;;;;;;;4875397;29;20275;-65
2024/03/02 04:47:44;;;;;;;0.10;0.10;;;;;;;;;;4866151;29;20021;-65
2024/03/02 04:50:10;;;;;;;0.20;0.20;;;;;;;;;;4870267;29;20450;-65
2024/03/02 04:52:35;;;;;;;0.00;0.00;;;;;;;;;;4867027;29;20828;-65
2024/03/02 04:55:09;;;;;;;0.10;0.10;;;;;;;;;;4869313;29;20044;-65
2024/03/02 04:57:35;;;;;;;0.00;0.00;;;;;;;;;;4874130;29;20269;-65
2024/03/02 05:00:00;;;;;;;0.10;0.10;;;;;;;;;;4875080;29;21386;-66
2024/03/02 05:02:25;;;;;;;0.00;0.00;;;;;;;;;;4867822;29;20025;-65
2024/03/02 05:04:50;;;;;;;0.00;0.00;;;;;;;;;;4873094;29;20321;-66
2024/03/02 05:07:15;;;;;;;0.20;0.20;;;;;;;;;;4875502;29;20021;-66
2024/03/02 05:09:42;;;;;;;0.03;0.03;;;;;;;;;;4868777;29;20040;-65
2024/03/02 05:14:51;;;;;;;0.22;0.22;;;;;;;;;;4878220;29;20020;-65
2024/03/02 05:17:16;;;;;;;0.10;0.10;;;;;;;;;;4880857;29;20025;-65
2024/03/02 05:19:41;;;;;;;0.10;0.10;;;;;;;;;;4878876;29;20260;-65
2024/03/02 05:22:06;;;;;;;0.27;0.27;;;;;;;;;;4877517;29;20029;-66
2024/03/02 05:24:31;;;;;;;0.10;0.10;;;;;;;;;;4877580;29;20025;-65
2024/03/02 05:26:56;;;;;;;0.40;0.40;;;;;;;;;;4865657;29;20109;-65
2024/03/02 05:29:22;;;;;;;0.00;0.00;;;;;;;;;;4860137;29;20054;-65
2024/03/02 05:31:47;;;;;;;0.20;0.20;;;;;;;;;;4873132;29;20408;-65
2024/03/02 05:34:12;;;;;;;0.20;0.20;;;;;;;;;;4870556;29;20323;-65
2024/03/02 05:36:38;;;;;;;0.30;0.30;;;;;;;;;;4877585;29;20476;-65
2024/03/02 05:39:06;;;;;;;0.10;0.10;;;;;;;;;;4873276;29;20029;-65
2024/03/02 05:41:31;;;;;;;0.08;0.08;;;;;;;;;;4864384;29;20437;-65
2024/03/02 05:43:56;;;;;;;1.58;0.30;;;;;;;;;;4873189;29;20030;-65
2024/03/02 05:46:22;;;;;;;0.00;0.00;;;;;;;;;;4880498;29;20103;-65
2024/03/02 05:48:47;;;;;;;0.13;0.13;;;;;;;;;;4872977;29;20362;-65
2024/03/02 05:51:12;;;;;;;0.33;0.33;;;;;;;;;;4880337;29;20033;-66
2024/03/02 05:53:38;;;;;;;0.23;0.23;;;;;;;;;;4879354;29;20089;-69
2024/03/02 05:56:04;;;;;;;1.38;0.47;;;;;;;;;;4869561;29;20382;-69
2024/03/02 06:01:13;;;;;;;0.00;0.00;;;;;;;;;;4868982;29;20095;-69
2024/03/02 06:03:38;;;;;;;0.10;0.10;;;;;;;;;;4864905;29;20037;-69
2024/03/02 06:06:03;;;;;;;0.00;0.00;;;;;;;;;;4866361;29;20260;-69
2024/03/02 06:08:29;;;;;;;0.10;0.10;;;;;;;;;;4867162;29;20022;-69
2024/03/02 06:10:54;;;;;;;0.00;0.00;;;;;;;;;;4872394;29;20029;-69
2024/03/02 06:13:19;;;;;;;0.08;0.08;;;;;;;;;;4873936;29;20370;-69
2024/03/02 06:15:44;;;;;;;0.00;0.00;;;;;;;;;;4879599;29;20033;-69
2024/03/02 06:18:09;;;;;;;0.43;0.40;;;;;;;;;;4871200;29;20033;-69
2024/03/02 06:20:35;;;;;;;0.07;0.07;;;;;;;;;;4872469;29;20022;-69
2024/03/02 06:23:00;;;;;;;0.63;0.50;;;;;;;;;;4870207;29;20075;-69
2024/03/02 06:25:25;;;;;;;0.20;0.20;;;;;;;;;;4878783;29;20032;-69
2024/03/02 06:27:51;;;;;;;0.10;0.10;;;;;;;;;;4866172;29;20391;-69
2024/03/02 06:30:16;;;;;;;0.10;0.10;;;;;;;;;;4875061;29;20355;-69
2024/03/02 06:32:41;;;;;;;0.00;0.00;;;;;;;;;;4876512;29;20103;-69
2024/03/02 06:35:09;;;;;;;0.00;0.00;;;;;;;;;;4872645;29;20347;-69
2024/03/02 06:37:35;;;;;;;0.10;0.10;;;;;;;;;;4873208;29;20110;-69
2024/03/02 06:40:00;;;;;;;0.00;0.00;;;;;;;;;;4871626;29;20038;-68
2024/03/02 06:42:25;;;;;;;0.30;0.30;;;;;;;;;;4869435;29;20284;-79
2024/03/02 06:44:50;;;;;;;0.40;0.40;;;;;;;;;;4869504;29;20024;-68
2024/03/02 06:47:16;;;;;;;0.30;0.30;;;;;;;;;;4861874;29;20767;-67
2024/03/02 06:49:41;;;;;;;0.10;0.10;;;;;;;;;;4861715;29;20423;-67
2024/03/02 06:52:07;;;;;;;0.17;0.17;;;;;;;;;;4865189;29;20029;-67
2024/03/02 06:54:32;;;;;;;0.13;0.13;;;;;;;;;;4875027;29;20040;-67
2024/03/02 06:56:57;;;;;;;0.00;0.00;;;;;;;;;;4866566;29;20055;-67
2024/03/02 06:59:22;;;;;;;0.30;0.30;;;;;;;;;;4870628;29;20013;-68
2024/03/02 07:01:48;;;;;;;0.20;0.20;;;;;;;;;;4867307;29;20021;-68
2024/03/02 07:04:13;;;;;;;1.55;0.70;;;;;;;;;;4878462;29;20440;-66
2024/03/02 07:06:39;;;;;;;1.43;0.97;;;;;;;;;;4866407;29;20032;-66
2024/03/02 07:09:04;;;;;;;0.13;0.10;;;;;;;;;;4867319;29;20052;-65
2024/03/02 07:11:29;;;;;;;0.00;0.00;;;;;;;;;;4871422;29;20044;-66
2024/03/02 07:13:54;;;;;;;0.00;0.00;;;;;;;;;;4870875;29;20121;-76
2024/03/02 07:16:32;;;;;;;0.17;0.17;;;;;;;;;;4866564;29;20029;-76
2024/03/02 07:18:58;;;;;;;0.20;0.20;;;;;;;;;;4874583;29;20260;-76
2024/03/02 07:21:24;;;;;;;0.00;0.00;;;;;;;;;;4863290;29;20029;-77
2024/03/02 07:23:49;;;;;;;0.40;0.40;;;;;;;;;;4870758;29;20033;-76
2024/03/02 07:26:15;;;;;;;0.00;0.00;;;;;;;;;;4844688;29;20025;-76
2024/03/02 07:28:41;;;;;;;0.10;0.10;;;;;;;;;;4861227;29;20029;-76
2024/03/02 07:31:06;;;;;;;0.10;0.10;;;;;;;;;;4861115;29;20025;-76
2024/03/02 07:33:31;;;;;;;0.10;0.10;;;;;;;;;;4866166;29;20028;-78
2024/03/02 07:35:59;;;;;;;0.20;0.20;;;;;;;;;;4871552;29;20025;-76
2024/03/02 07:38:24;;;;;;;0.00;0.00;;;;;;;;;;4856297;29;20330;-76
2024/03/02 07:40:53;;;;;;;0.30;0.30;;;;;;;;;;4878686;29;20081;-77
2024/03/02 07:43:19;;;;;;;0.00;0.00;;;;;;;;;;4877279;29;20284;-77
2024/03/02 07:45:44;;;;;;;0.00;0.00;;;;;;;;;;4861773;29;20029;-77
2024/03/02 07:48:09;;;;;;;0.20;0.20;;;;;;;;;;4878684;29;20036;-78
2024/03/02 07:50:35;;;;;;;0.00;0.00;;;;;;;;;;4878867;29;20060;-78
2024/03/02 07:53:00;;;;;;;0.00;0.00;;;;;;;;;;4875115;29;20264;-78
2024/03/02 07:55:26;;;;;;;0.10;0.10;;;;;;;;;;4878605;29;20103;-78
2024/03/02 07:57:51;;;;;;;0.00;0.00;;;;;;;;;;4870708;29;20487;-77
2024/03/02 08:00:16;;;;;;;0.30;0.30;;;;;;;;;;4868539;29;20029;-78
2024/03/02 08:02:42;;;;;;;0.00;0.00;;;;;;;;;;4868972;29;20426;-77
2024/03/02 08:05:07;;;;;;;0.10;0.10;;;;;;;;;;4855624;29;20679;-67
2024/03/02 08:07:32;;;;;;;0.20;0.20;;;;;;;;;;4873620;29;20085;-67
2024/03/02 08:09:58;;;;;;;0.00;0.00;;;;;;;;;;4877112;29;20034;-67
2024/03/02 08:12:23;;;;;;;0.00;0.00;;;;;;;;;;4878492;29;20752;-68
2024/03/02 08:14:48;;;;;;;0.10;0.10;;;;;;;;;;4878630;29;20384;-68
2024/03/02 08:17:13;;;;;;;0.00;0.00;;;;;;;;;;4877554;29;20033;-68
2024/03/02 08:19:39;;;;;;;0.00;0.00;;;;;;;;;;4872261;29;20449;-68
2024/03/02 08:22:04;;;;;;;0.22;0.22;;;;;;;;;;4878825;29;20117;-68
2024/03/02 08:24:29;;;;;;;0.17;0.17;;;;;;;;;;4878463;29;20059;-68
2024/03/02 08:26:55;;;;;;;0.00;0.00;;;;;;;;;;4878222;29;20025;-68
2024/03/02 08:29:33;;;;;;;0.00;0.00;;;;;;;;;;4878653;29;20190;-68
2024/03/02 08:31:58;;;;;;;0.00;0.00;;;;;;;;;;4878113;29;20280;-68
2024/03/02 08:34:23;;;;;;;0.00;0.00;;;;;;;;;;4882423;29;20446;-68
2024/03/02 08:36:49;;;;;;;0.30;0.30;;;;;;;;;;4880587;29;20032;-68
2024/03/02 08:39:15;;;;;;;0.08;0.08;;;;;;;;;;4882180;29;20029;-68
2024/03/02 08:41:49;;;;;;;0.00;0.00;;;;;;;;;;4881914;29;20097;-68
2024/03/02 08:44:15;;;;;;;0.38;0.30;;;;;;;;;;4868232;29;20037;-68
2024/03/02 08:46:40;;;;;;;0.00;0.00;;;;;;;;;;4874695;29;20480;-68
2024/03/02 08:49:06;;;;;;;0.00;0.00;;;;;;;;;;4881784;29;20048;-68
2024/03/02 08:51:31;;;;;;;0.00;0.00;;;;;;;;;;4881707;29;20085;-68
2024/03/02 08:53:57;;;;;;;0.35;0.35;;;;;;;;;;4881260;29;20044;-68
2024/03/02 08:56:23;;;;;;;0.00;0.00;;;;;;;;;;4879773;29;20029;-68
2024/03/02 08:58:49;;;;;;;0.00;0.00;;;;;;;;;;4881507;29;20033;-68
2024/03/02 09:01:14;;;;;;;0.00;0.00;;;;;;;;;;4879839;29;20088;-68
2024/03/02 09:03:39;;;;;;;0.00;0.00;;;;;;;;;;4879684;29;20117;-68
2024/03/02 09:06:04;;;;;;;2.00;0.77;;;;;;;;;;4880502;29;20033;-68
2024/03/02 09:08:29;;;;;;;0.10;0.10;;;;;;;;;;4881982;29;20021;-68
2024/03/02 09:10:55;;;;;;;0.00;0.00;;;;;;;;;;4881795;29;20297;-68
2024/03/02 09:13:20;;;;;;;0.10;0.10;;;;;;;;;;4876809;29;20116;-68
2024/03/02 09:15:46;;;;;;;0.10;0.10;;;;;;;;;;4874231;29;20460;-68
2024/03/02 09:18:11;;;;;;;0.10;0.10;;;;;;;;;;4874851;29;20362;-68
2024/03/02 09:20:36;;;;;;;0.00;0.00;;;;;;;;;;4881714;29;20315;-68
2024/03/02 09:23:01;;;;;;;0.00;0.00;;;;;;;;;;4880993;29;20029;-78
2024/03/02 09:25:27;;;;;;;0.00;0.00;;;;;;;;;;4849700;29;20025;-77
2024/03/02 09:27:52;;;;;;;0.10;0.10;;;;;;;;;;4880949;29;20048;-78
2024/03/02 09:30:17;;;;;;;0.10;0.10;;;;;;;;;;4866985;29;20300;-78
2024/03/02 09:32:42;;;;;;;0.05;0.05;;;;;;;;;;4859650;29;20066;-77
2024/03/02 09:35:08;;;;;;;0.53;0.27;;;;;;;;;;4876494;29;20457;-77
2024/03/02 09:37:34;;;;;;;0.00;0.00;;;;;;;;;;4855229;29;20317;-77
2024/03/02 09:39:59;;;;;;;0.10;0.10;;;;;;;;;;4876591;29;20030;-77
2024/03/02 09:42:25;;;;;;;0.00;0.00;;;;;;;;;;4874548;29;20037;-77
2024/03/02 09:44:51;;;;;;;0.17;0.17;;;;;;;;;;4854608;29;20021;-77
2024/03/02 09:47:16;;;;;;;0.15;0.15;;;;;;;;;;4870965;29;20454;-77
2024/03/02 09:49:42;;;;;;;0.20;0.20;;;;;;;;;;4855986;29;20053;-76
2024/03/02 09:52:07;;;;;;;0.00;0.00;;;;;;;;;;4871437;29;20347;-76
2024/03/02 09:54:32;;;;;;;0.22;0.22;;;;;;;;;;4850642;29;20304;-75
2024/03/02 09:57:01;;;;;;;0.40;0.40;;;;;;;;;;4871120;29;20036;-77
2024/03/02 09:59:28;;;;;;;0.50;0.50;;;;;;;;;;4864892;29;20081;-76
2024/03/02 10:01:59;;;;;;;0.17;0.17;;;;;;;;;;4880210;29;20025;-76
2024/03/02 10:04:29;;;;;;;0.10;0.10;;;;;;;;;;4871481;29;20084;-77
2024/03/02 10:07:12;;;;;;;0.10;0.10;;;;;;;;;;4875983;29;20393;-76
2024/03/02 10:09:38;;;;;;;0.00;0.00;;;;;;;;;;4862894;29;20017;-76
2024/03/02 10:12:04;;;;;;;0.00;0.00;;;;;;;;;;4853088;29;20537;-76
2024/03/02 10:14:29;;;;;;;0.05;0.05;;;;;;;;;;4862727;29;20618;-78
2024/03/02 10:17:01;;;;;;;0.10;0.10;;;;;;;;;;4869940;29;20116;-67
2024/03/02 10:19:26;;;;;;;0.07;0.07;;;;;;;;;;4874351;29;20057;-67
2024/03/02 10:21:52;;;;;;;0.53;0.53;;;;;;;;;;4877230;29;20319;-68
2024/03/02 10:24:18;;;;;;;0.10;0.10;;;;;;;;;;4869701;29;20284;-67
2024/03/02 10:26:43;;;;;;;0.20;0.20;;;;;;;;;;4872121;29;20091;-67
2024/03/02 10:29:10;;;;;;;0.00;0.00;;;;;;;;;;4873714;29;20130;-78
2024/03/02 10:31:36;;;;;;;0.22;0.22;;;;;;;;;;4874354;29;20390;-82
2024/03/02 10:34:02;;;;;;;0.28;0.28;;;;;;;;;;4856493;29;20036;-66
2024/03/02 10:36:28;;;;;;;0.00;0.00;;;;;;;;;;4873382;29;20025;-67
2024/03/02 10:38:55;;;;;;;0.10;0.10;;;;;;;;;;4872104;29;20482;-67
2024/03/02 10:41:23;;;;;;;0.05;0.05;;;;;;;;;;4876691;29;20039;-67
2024/03/02 10:43:48;;;;;;;0.00;0.00;;;;;;;;;;4875221;29;20504;-66
2024/03/02 10:46:14;;;;;;;0.00;0.00;;;;;;;;;;4872489;29;20021;-66
2024/03/02 10:48:39;;;;;;;0.00;0.00;;;;;;;;;;4874913;29;20074;-67
2024/03/02 10:51:05;;;;;;;0.00;0.00;;;;;;;;;;4873556;29;20045;-67
2024/03/02 10:53:30;;;;;;;0.10;0.10;;;;;;;;;;4875398;29;20047;-66
2024/03/02 10:56:05;;;;;;;0.00;0.00;;;;;;;;;;4874540;29;20331;-66
2024/03/02 10:58:32;;;;;;;0.03;0.03;;;;;;;;;;4875045;29;20432;-66
2024/03/02 11:00:58;;;;;;;0.00;0.00;;;;;;;;;;4876208;29;20025;-66
2024/03/02 11:03:23;;;;;;;0.00;0.00;;;;;;;;;;4877183;29;20025;-77
2024/03/02 11:05:49;;;;;;;1.20;0.20;;;;;;;;;;4864572;29;20028;-76
2024/03/02 11:08:23;;;;;;;0.00;0.00;;;;;;;;;;4854084;29;20057;-76
2024/03/02 11:10:57;;;;;;;0.00;0.00;;;;;;;;;;4859918;29;20099;-78
2024/03/02 11:13:33;;;;;;;0.00;0.00;;;;;;;;;;4875897;29;20440;-76
2024/03/02 11:16:10;;;;;;;0.00;0.00;;;;;;;;;;4874752;29;20112;-77
2024/03/02 11:18:35;;;;;;;0.00;0.00;;;;;;;;;;4879904;29;20029;-76
2024/03/02 11:21:02;;;;;;;0.00;0.00;;;;;;;;;;4879747;29;20116;-77
2024/03/02 11:23:35;;;;;;;0.00;0.00;;;;;;;;;;4867999;29;20454;-76
2024/03/02 11:26:19;;;;;;;0.00;0.00;;;;;;;;;;4859851;29;20060;-77
2024/03/02 11:28:46;;;;;;;0.00;0.00;;;;;;;;;;4861303;29;20022;-76
2024/03/02 11:31:11;;;;;;;0.00;0.00;;;;;;;;;;4871121;29;20109;-77
2024/03/02 11:33:36;;;;;;;0.00;0.00;;;;;;;;;;4878316;29;20108;-76
2024/03/02 11:36:02;;;;;;;0.20;0.20;;;;;;;;;;4861219;29;20367;-77
2024/03/02 11:38:28;;;;;;;0.00;0.00;;;;;;;;;;4859691;29;20119;-77
2024/03/02 11:40:53;;;;;;;0.52;0.52;;;;;;;;;;4869274;29;20444;-76
2024/03/02 11:43:19;;;;;;;0.93;0.30;;;;;;;;;;4868784;29;20434;-80
2024/03/02 11:45:44;;;;;;;0.10;0.10;;;;;;;;;;4876659;29;20013;-80
2024/03/02 11:48:13;;;;;;;0.57;0.52;;;;;;;;;;4873111;29;20040;-80
2024/03/02 11:50:49;;;;;;;0.00;0.00;;;;;;;;;;4869451;29;20054;-79
2024/03/02 11:53:15;;;;;;;0.10;0.10;;;;;;;;;;4874323;29;20577;-80
2024/03/02 11:55:41;;;;;;;0.10;0.10;;;;;;;;;;4849987;29;20100;-79
2024/03/02 11:58:06;;;;;;;0.43;0.32;;;;;;;;;;4872752;29;20021;-77
2024/03/02 12:00:32;;;;;;;0.10;0.10;;;;;;;;;;4875705;29;20384;-76
2024/03/02 12:03:04;;;;;;;0.10;0.10;;;;;;;;;;4866532;29;20074;-76
2024/03/02 12:05:30;;;;;;;0.10;0.10;;;;;;;;;;4870892;29;20026;-75
2024/03/02 12:07:56;;;;;;;0.30;0.30;;;;;;;;;;4874803;29;20368;-75
2024/03/02 12:10:21;;;;;;;0.00;0.00;;;;;;;;;;4873709;29;20477;-76
2024/03/02 12:12:46;;;;;;;0.00;0.00;;;;;;;;;;4873671;29;20108;-75
2024/03/02 12:15:12;;;;;;;0.00;0.00;;;;;;;;;;4872641;29;20339;-75
2024/03/02 12:17:38;;;;;;;0.00;0.00;;;;;;;;;;4875473;29;20029;-75
2024/03/02 12:20:04;;;;;;;0.00;0.00;;;;;;;;;;4875059;29;20351;-76
2024/03/02 12:22:29;;;;;;;0.00;0.00;;;;;;;;;;4874061;29;20163;-75
2024/03/02 12:24:54;;;;;;;0.00;0.00;;;;;;;;;;4882056;29;20107;-76
2024/03/02 12:27:20;;;;;;;0.00;0.00;;;;;;;;;;4882296;29;20617;-75
2024/03/02 12:29:46;;;;;;;0.30;0.30;;;;;;;;;;4882261;29;20149;-75
2024/03/02 12:32:11;;;;;;;0.10;0.10;;;;;;;;;;4879108;29;20108;-75
2024/03/02 12:34:38;;;;;;;0.08;0.08;;;;;;;;;;4876453;29;20268;-76
2024/03/02 12:37:03;;;;;;;0.00;0.00;;;;;;;;;;4874402;29;20184;-75
2024/03/02 12:39:30;;;;;;;0.08;0.08;;;;;;;;;;4870787;29;20066;-75
2024/03/02 12:41:55;;;;;;;0.00;0.00;;;;;;;;;;4873380;29;20478;-70
2024/03/02 12:44:20;;;;;;;0.10;0.10;;;;;;;;;;4878050;29;20032;-67
2024/03/02 12:46:46;;;;;;;0.00;0.00;;;;;;;;;;4878251;29;20252;-67
2024/03/02 12:49:21;;;;;;;0.00;0.00;;;;;;;;;;4874787;29;20025;-67
2024/03/02 12:51:51;;;;;;;0.00;0.00;;;;;;;;;;4857778;29;20041;-67
2024/03/02 12:54:17;;;;;;;0.10;0.10;;;;;;;;;;4853211;29;20112;-67
2024/03/02 12:56:46;;;;;;;0.00;0.00;;;;;;;;;;4855945;29;20128;-67
2024/03/02 12:59:18;;;;;;;0.10;0.10;;;;;;;;;;4856335;29;20126;-67
2024/03/02 13:01:52;;;;;;;0.00;0.00;;;;;;;;;;4861103;29;20040;-67
2024/03/02 13:04:21;;;;;;;0.00;0.00;;;;;;;;;;4857710;29;20025;-67
2024/03/02 13:06:46;;;;;;;0.03;0.03;;;;;;;;;;4848564;29;20611;-67
2024/03/02 13:09:14;;;;;;;0.00;0.00;;;;;;;;;;4852550;29;20100;-67
2024/03/02 13:11:40;;;;;;;0.15;0.15;;;;;;;;;;4859285;29;20351;-68
2024/03/02 13:14:05;;;;;;;0.03;0.03;;;;;;;;;;4853601;29;20501;-68
2024/03/02 13:16:30;;;;;;;0.00;0.00;;;;;;;;;;4858151;29;20029;-68
2024/03/02 13:18:55;;;;;;;0.37;0.37;;;;;;;;;;4849014;29;20467;-67
2024/03/02 13:21:20;;;;;;;0.00;0.00;;;;;;;;;;4855375;29;20090;-67
2024/03/02 13:23:46;;;;;;;0.00;0.00;;;;;;;;;;4849340;29;20105;-68
2024/03/02 13:26:12;;;;;;;0.00;0.00;;;;;;;;;;4845965;29;20052;-67
2024/03/02 13:28:37;;;;;;;0.00;0.00;;;;;;;;;;4854724;29;20017;-68
2024/03/02 13:31:03;;;;;;;0.10;0.10;;;;;;;;;;4852463;29;20071;-68
2024/03/02 13:33:30;;;;;;;0.10;0.10;;;;;;;;;;4854409;29;20069;-68
2024/03/02 13:35:55;;;;;;;0.00;0.00;;;;;;;;;;4844737;29;20041;-68
2024/03/02 13:38:20;;;;;;;0.00;0.00;;;;;;;;;;4851526;29;20025;-68
2024/03/02 13:40:50;;;;;;;0.10;0.10;;;;;;;;;;4854265;29;20334;-68
2024/03/02 13:43:16;;;;;;;0.00;0.00;;;;;;;;;;4858611;29;20034;-68
2024/03/02 13:45:41;;;;;;;0.00;0.00;;;;;;;;;;4857967;29;20406;-68
2024/03/02 13:48:07;;;;;;;0.00;0.00;;;;;;;;;;4862561;29;20032;-68
2024/03/02 13:50:32;;;;;;;0.10;0.10;;;;;;;;;;4869251;29;20268;-67
2024/03/02 13:52:57;;;;;;;0.00;0.00;;;;;;;;;;4881096;29;20033;-68
2024/03/02 13:55:22;;;;;;;0.10;0.10;;;;;;;;;;4880940;29;20037;-68
2024/03/02 13:57:49;;;;;;;0.00;0.00;;;;;;;;;;4881045;29;20029;-68
2024/03/02 14:00:15;;;;;;;0.00;0.00;;;;;;;;;;4873074;29;20078;-68
2024/03/02 14:02:40;;;;;;;0.00;0.00;;;;;;;;;;4876911;29;20121;-66
2024/03/02 14:05:08;;;;;;;0.00;0.00;;;;;;;;;;4869406;29;20021;-66
2024/03/02 14:07:34;;;;;;;0.00;0.00;;;;;;;;;;4873075;29;20513;-66
2024/03/02 14:09:59;;;;;;;0.00;0.00;;;;;;;;;;4872212;29;20017;-66
2024/03/02 14:12:24;;;;;;;0.23;0.23;;;;;;;;;;4871663;29;20734;-82
2024/03/02 14:14:51;;;;;;;0.00;0.00;;;;;;;;;;4867937;29;20360;-74
2024/03/02 14:17:16;;;;;;;0.05;0.05;;;;;;;;;;4875902;29;20343;-66
2024/03/02 14:19:41;;;;;;;0.00;0.00;;;;;;;;;;4871895;29;20064;-77
2024/03/02 14:22:06;;;;;;;1.50;0.67;;;;;;;;;;4877642;29;20017;-77
2024/03/02 14:24:31;;;;;;;0.00;0.00;;;;;;;;;;4876724;29;20280;-77
2024/03/02 14:27:02;;;;;;;0.00;0.00;;;;;;;;;;4877400;29;20045;-77
2024/03/02 14:29:28;;;;;;;0.00;0.00;;;;;;;;;;4872190;29;20262;-77
2024/03/02 14:31:53;;;;;;;0.00;0.00;;;;;;;;;;4868992;29;20029;-78
2024/03/02 14:34:19;;;;;;;0.00;0.00;;;;;;;;;;4874554;29;20036;-78
2024/03/02 14:36:44;;;;;;;0.00;0.00;;;;;;;;;;4863694;29;20387;-79
2024/03/02 14:39:10;;;;;;;0.00;0.00;;;;;;;;;;4879076;29;20474;-79
2024/03/02 14:41:36;;;;;;;0.00;0.00;;;;;;;;;;4859127;29;20389;-78